createdAt,value
2017-12-14T00:02:38.910Z,89.52
2017-12-14T00:08:42.434Z,88.78
2017-12-14T00:14:46.726Z,88.40
2017-12-14T00:20:50.363Z,88.94
2017-12-14T00:26:54.788Z,89.47
2017-12-14T00:32:58.353Z,89.47
2017-12-14T00:39:03.644Z,89.07
2017-12-14T00:45:07.195Z,88.88
2017-12-14T00:51:10.707Z,88.96
2017-12-14T00:57:15.120Z,89.55
2017-12-14T01:03:18.699Z,89.04
2017-12-14T01:09:22.903Z,88.85
2017-12-14T01:15:27.528Z,88.86
2017-12-14T01:21:31.364Z,87.35
2017-12-14T01:27:35.026Z,87.17
2017-12-14T01:33:38.620Z,87.12
2017-12-14T01:39:42.496Z,86.69
2017-12-14T01:45:46.041Z,86.35
2017-12-14T01:51:49.587Z,86.20
2017-12-14T01:57:53.570Z,85.88
2017-12-14T02:03:57.934Z,86.29
2017-12-14T02:10:01.786Z,86.37
2017-12-14T02:16:05.379Z,86.53
2017-12-14T02:22:08.994Z,88.04
2017-12-14T02:28:12.519Z,86.30
2017-12-14T02:34:16.028Z,85.13
2017-12-14T02:40:19.649Z,84.88
2017-12-14T02:46:23.646Z,84.39
2017-12-14T02:52:27.239Z,83.57
2017-12-14T02:58:31.583Z,82.99
2017-12-14T03:04:35.125Z,82.98
2017-12-14T03:10:38.644Z,82.56
2017-12-14T03:16:42.204Z,82.15
2017-12-14T03:22:45.755Z,81.30
2017-12-14T03:28:50.933Z,82.57
2017-12-14T03:34:54.606Z,81.98
2017-12-14T03:40:58.168Z,81.61
2017-12-14T03:47:01.690Z,81.46
2017-12-14T03:53:05.959Z,81.82
2017-12-14T03:59:10.237Z,82.05
2017-12-14T04:05:14.622Z,81.32
2017-12-14T04:11:18.124Z,82.11
2017-12-14T04:17:22.108Z,82.36
2017-12-14T04:23:25.962Z,82.75
2017-12-14T04:29:29.661Z,82.97
2017-12-14T04:35:33.381Z,84.13
2017-12-14T04:41:37.751Z,84.76
2017-12-14T04:47:41.263Z,85.13
2017-12-14T04:53:44.866Z,84.42
2017-12-14T04:59:48.499Z,84.98
2017-12-14T05:05:52.294Z,85.65
2017-12-14T05:11:56.724Z,84.72
2017-12-14T05:18:00.242Z,85.53
2017-12-14T05:24:04.528Z,85.42
2017-12-14T05:30:09.005Z,85.32
2017-12-14T05:36:12.535Z,85.00
2017-12-14T05:42:16.104Z,85.37
2017-12-14T05:48:20.422Z,85.62
2017-12-14T05:54:24.012Z,85.63
2017-12-14T06:00:28.340Z,83.97
2017-12-14T06:06:31.863Z,83.32
2017-12-14T06:12:35.464Z,85.72
2017-12-14T06:18:38.990Z,86.24
2017-12-14T06:24:43.262Z,87.62
2017-12-14T06:30:46.862Z,88.24
2017-12-14T06:36:50.429Z,89.51
2017-12-14T06:42:54.365Z,89.48
2017-12-14T06:48:57.863Z,90.09
2017-12-14T06:55:01.355Z,89.53
2017-12-14T07:01:04.960Z,90.90
2017-12-14T07:07:08.516Z,90.91
2017-12-14T07:13:12.098Z,91.42
2017-12-14T07:19:16.986Z,92.20
2017-12-14T07:25:20.725Z,92.91
2017-12-14T07:31:24.362Z,93.30
2017-12-14T07:37:27.866Z,93.70
2017-12-14T07:43:31.441Z,93.64
2017-12-14T07:49:34.966Z,93.82
2017-12-14T07:55:38.525Z,93.95
2017-12-14T08:01:42.790Z,93.67
2017-12-14T08:07:46.277Z,93.57
2017-12-14T08:13:49.795Z,93.57
2017-12-14T08:19:54.350Z,93.83
2017-12-14T08:25:57.863Z,93.95
2017-12-14T08:32:01.507Z,93.82
2017-12-14T08:38:05.004Z,93.88
2017-12-14T08:44:08.503Z,94.09
2017-12-14T08:50:12.766Z,93.77
2017-12-14T08:56:17.078Z,93.80
2017-12-14T09:02:20.758Z,93.47
2017-12-14T09:08:24.378Z,93.19
2017-12-14T09:14:28.340Z,93.14
2017-12-14T09:20:31.937Z,93.24
2017-12-14T09:26:35.445Z,93.16
2017-12-14T09:32:38.939Z,93.54
2017-12-14T09:38:42.443Z,93.66
2017-12-14T09:44:46.740Z,93.56
2017-12-14T09:50:50.344Z,92.33
2017-12-14T09:56:53.953Z,92.53
2017-12-14T10:02:57.512Z,92.28
2017-12-14T10:09:01.163Z,91.19
2017-12-14T10:15:04.668Z,90.55
2017-12-14T10:21:08.166Z,88.35
2017-12-14T10:27:11.681Z,86.84
2017-12-14T10:33:16.019Z,86.21
2017-12-14T10:39:19.646Z,85.92
2017-12-14T10:45:23.210Z,86.29
2017-12-14T10:51:26.846Z,85.68
2017-12-14T10:57:31.136Z,85.43
2017-12-14T11:03:34.666Z,87.20
2017-12-14T11:09:38.952Z,87.04
2017-12-14T11:15:43.325Z,86.52
2017-12-14T11:21:47.686Z,85.64
2017-12-14T11:27:52.118Z,85.87
2017-12-14T11:33:55.728Z,85.21
2017-12-14T11:39:59.988Z,83.96
2017-12-14T11:46:03.629Z,84.19
2017-12-14T11:52:07.222Z,82.96
2017-12-14T11:58:10.712Z,83.34
2017-12-14T12:04:14.519Z,82.62
2017-12-14T12:10:18.050Z,80.25
2017-12-14T12:16:22.000Z,80.86
2017-12-14T12:22:25.800Z,80.11
2017-12-14T12:28:30.079Z,79.23
2017-12-14T12:34:34.332Z,78.92
2017-12-14T12:40:37.904Z,77.57
2017-12-14T12:46:42.198Z,77.29
2017-12-14T12:52:45.720Z,77.56
2017-12-14T12:58:49.390Z,77.08
2017-12-14T13:04:54.633Z,77.83
2017-12-14T13:10:58.168Z,77.96
2017-12-14T13:17:01.685Z,78.25
2017-12-14T13:23:06.032Z,79.58
2017-12-14T13:29:09.723Z,80.07
2017-12-14T13:35:14.036Z,79.52
2017-12-14T13:41:17.535Z,80.07
2017-12-14T13:47:21.395Z,79.80
2017-12-14T13:53:25.300Z,79.39
2017-12-14T13:59:28.852Z,79.83
2017-12-14T14:05:32.375Z,79.86
2017-12-14T14:11:36.638Z,80.49
2017-12-14T14:17:40.174Z,80.51
2017-12-14T14:23:43.662Z,80.65
2017-12-14T14:29:47.964Z,79.24
2017-12-14T14:35:51.497Z,79.80
2017-12-14T14:41:55.790Z,79.93
2017-12-14T14:47:59.338Z,80.60
2017-12-14T14:54:02.861Z,79.98
2017-12-14T15:00:06.399Z,79.17
2017-12-14T15:06:09.913Z,80.20
2017-12-14T15:12:13.479Z,79.39
2017-12-14T15:18:17.031Z,79.48
2017-12-14T15:24:20.587Z,79.67
2017-12-14T15:30:24.767Z,79.51
2017-12-14T15:36:28.325Z,79.96
2017-12-14T15:42:31.914Z,80.56
2017-12-14T15:48:35.435Z,80.78
2017-12-14T15:54:39.178Z,81.28
2017-12-14T16:00:42.812Z,81.27
2017-12-14T16:06:47.083Z,81.76
2017-12-14T16:12:51.754Z,82.27
2017-12-14T16:18:55.608Z,82.29
2017-12-14T16:24:59.169Z,82.79
2017-12-14T16:31:02.758Z,82.99
2017-12-14T16:37:07.081Z,83.29
2017-12-14T16:43:10.622Z,83.21
2017-12-14T16:49:14.132Z,83.17
2017-12-14T16:55:17.694Z,83.71
2017-12-14T17:01:21.970Z,83.93
2017-12-14T17:07:25.504Z,84.50
2017-12-14T17:13:29.771Z,85.20
2017-12-14T17:19:34.050Z,85.38
2017-12-14T17:25:38.387Z,85.63
2017-12-14T17:31:41.906Z,86.16
2017-12-14T17:37:45.446Z,86.23
2017-12-14T17:43:49.008Z,86.10
2017-12-14T17:49:53.739Z,85.81
2017-12-14T17:55:57.352Z,85.95
2017-12-14T18:02:00.870Z,85.69
2017-12-14T18:08:05.222Z,85.74
2017-12-14T18:14:08.700Z,85.28
2017-12-14T18:20:13.121Z,83.88
2017-12-14T18:26:16.765Z,83.84
2017-12-14T18:32:20.493Z,82.25
2017-12-14T18:38:24.086Z,82.70
2017-12-14T18:44:27.613Z,84.20
2017-12-14T18:50:31.876Z,85.08
2017-12-14T18:56:36.173Z,85.75
2017-12-14T19:02:39.832Z,86.15
2017-12-14T19:08:43.395Z,86.74
2017-12-14T19:14:46.910Z,87.04
2017-12-14T19:20:51.753Z,87.07
2017-12-14T19:26:55.518Z,87.43
2017-12-14T19:32:59.138Z,87.34
2017-12-14T19:39:02.904Z,87.64
2017-12-14T19:45:06.426Z,87.47
2017-12-14T19:51:09.978Z,86.91
2017-12-14T19:57:14.514Z,87.05
2017-12-14T20:03:18.899Z,87.76
2017-12-14T20:09:22.730Z,87.84
2017-12-14T20:15:26.422Z,87.84
2017-12-14T20:21:29.937Z,87.64
2017-12-14T20:27:33.468Z,87.23
2017-12-14T20:33:37.783Z,86.96
2017-12-14T20:39:42.005Z,86.67
2017-12-14T20:45:46.277Z,85.88
2017-12-14T20:51:50.083Z,85.74
2017-12-14T20:57:53.731Z,85.90
2017-12-14T21:03:57.474Z,86.15
2017-12-14T21:10:01.820Z,86.81
2017-12-14T21:16:05.701Z,87.04
2017-12-14T21:22:10.023Z,86.27
2017-12-14T21:28:13.687Z,86.24
2017-12-14T21:34:17.418Z,86.14
2017-12-14T21:40:21.226Z,86.39
2017-12-14T21:46:24.928Z,85.78
2017-12-14T21:52:28.530Z,86.03
2017-12-14T21:58:32.080Z,86.40
2017-12-14T22:04:36.374Z,86.93
2017-12-14T22:10:40.067Z,90.13
2017-12-14T22:16:43.966Z,87.17
2017-12-14T22:22:48.318Z,87.78
2017-12-14T22:28:52.122Z,88.43
2017-12-14T22:34:55.698Z,88.20
2017-12-14T22:40:59.219Z,88.08
2017-12-14T22:47:02.872Z,88.56
2017-12-14T22:53:06.472Z,88.66
2017-12-14T22:59:10.753Z,88.50
2017-12-14T23:05:15.026Z,88.76
2017-12-14T23:11:18.658Z,88.95
2017-12-14T23:17:22.489Z,88.92
2017-12-14T23:23:27.607Z,89.50
2017-12-14T23:29:31.111Z,89.80
2017-12-14T23:35:35.456Z,90.00
2017-12-14T23:41:39.821Z,90.32
2017-12-14T23:47:44.209Z,91.05
2017-12-14T23:53:48.742Z,91.38
2017-12-14T23:59:52.835Z,90.94
